sensor_id;sensor_type;location;lat;lon;timestamp;temperature;humidity
73133;DHT22;61320;52.008;4.530;2023-07-31T00:00:14;17.96;87.82
73133;DHT22;61320;52.008;4.530;2023-07-31T00:02:40;17.94;87.95
73133;DHT22;61320;52.008;4.530;2023-07-31T00:05:06;17.93;88.06
73133;DHT22;61320;52.008;4.530;2023-07-31T00:07:32;17.92;88.12
73133;DHT22;61320;52.008;4.530;2023-07-31T00:12:23;17.86;88.08
73133;DHT22;61320;52.008;4.530;2023-07-31T00:14:49;17.89;88.23
73133;DHT22;61320;52.008;4.530;2023-07-31T00:17:16;17.90;88.18
73133;DHT22;61320;52.008;4.530;2023-07-31T00:19:42;17.85;87.93
73133;DHT22;61320;52.008;4.530;2023-07-31T00:22:07;17.86;88.00
73133;DHT22;61320;52.008;4.530;2023-07-31T00:24:33;17.90;88.04
73133;DHT22;61320;52.008;4.530;2023-07-31T00:26:58;17.87;87.96
73133;DHT22;61320;52.008;4.530;2023-07-31T00:29:24;17.86;87.86
73133;DHT22;61320;52.008;4.530;2023-07-31T00:31:49;17.85;88.16
73133;DHT22;61320;52.008;4.530;2023-07-31T00:34:15;17.90;88.09
73133;DHT22;61320;52.008;4.530;2023-07-31T00:36:40;17.92;87.93
73133;DHT22;61320;52.008;4.530;2023-07-31T00:39:06;17.93;87.82
73133;DHT22;61320;52.008;4.530;2023-07-31T00:41:31;17.89;87.92
73133;DHT22;61320;52.008;4.530;2023-07-31T00:43:57;17.89;87.84
73133;DHT22;61320;52.008;4.530;2023-07-31T00:46:23;17.92;87.71
73133;DHT22;61320;52.008;4.530;2023-07-31T00:48:49;17.86;87.94
73133;DHT22;61320;52.008;4.530;2023-07-31T00:51:15;17.85;88.16
73133;DHT22;61320;52.008;4.530;2023-07-31T00:53:41;17.87;88.16
73133;DHT22;61320;52.008;4.530;2023-07-31T00:56:08;17.89;87.93
73133;DHT22;61320;52.008;4.530;2023-07-31T00:58:33;17.86;87.81
73133;DHT22;61320;52.008;4.530;2023-07-31T01:00:59;17.80;87.87
73133;DHT22;61320;52.008;4.530;2023-07-31T01:03:25;17.78;88.07
73133;DHT22;61320;52.008;4.530;2023-07-31T01:08:29;17.69;88.00
73133;DHT22;61320;52.008;4.530;2023-07-31T01:11:03;17.61;87.87
73133;DHT22;61320;52.008;4.530;2023-07-31T01:13:31;17.55;87.82
73133;DHT22;61320;52.008;4.530;2023-07-31T01:15:56;17.49;88.10
73133;DHT22;61320;52.008;4.530;2023-07-31T01:18:21;17.53;88.22
73133;DHT22;61320;52.008;4.530;2023-07-31T01:20:57;17.55;88.01
73133;DHT22;61320;52.008;4.530;2023-07-31T01:26:19;17.58;88.11
73133;DHT22;61320;52.008;4.530;2023-07-31T01:29:03;17.63;88.23
73133;DHT22;61320;52.008;4.530;2023-07-31T01:31:31;17.63;88.05
73133;DHT22;61320;52.008;4.530;2023-07-31T01:46:08;17.76;87.81
73133;DHT22;61320;52.008;4.530;2023-07-31T01:53:27;17.69;87.74
73133;DHT22;61320;52.008;4.530;2023-07-31T01:55:52;17.65;87.58
73133;DHT22;61320;52.008;4.530;2023-07-31T01:58:17;17.63;87.84
73133;DHT22;61320;52.008;4.530;2023-07-31T02:00:43;17.62;87.58
73133;DHT22;61320;52.008;4.530;2023-07-31T02:03:08;17.59;87.76
73133;DHT22;61320;52.008;4.530;2023-07-31T02:05:34;17.62;87.71
73133;DHT22;61320;52.008;4.530;2023-07-31T02:08:00;17.65;87.62
73133;DHT22;61320;52.008;4.530;2023-07-31T02:10:25;17.65;87.72
73133;DHT22;61320;52.008;4.530;2023-07-31T02:12:50;17.65;87.39
73133;DHT22;61320;52.008;4.530;2023-07-31T02:15:16;17.65;87.84
73133;DHT22;61320;52.008;4.530;2023-07-31T02:17:41;17.65;87.73
73133;DHT22;61320;52.008;4.530;2023-07-31T02:20:07;17.63;87.50
73133;DHT22;61320;52.008;4.530;2023-07-31T02:22:33;17.61;87.39
73133;DHT22;61320;52.008;4.530;2023-07-31T02:24:58;17.58;87.59
73133;DHT22;61320;52.008;4.530;2023-07-31T02:29:52;17.55;87.49
73133;DHT22;61320;52.008;4.530;2023-07-31T02:32:17;17.53;87.32
73133;DHT22;61320;52.008;4.530;2023-07-31T02:34:43;17.53;87.28
73133;DHT22;61320;52.008;4.530;2023-07-31T02:37:09;17.46;87.37
73133;DHT22;61320;52.008;4.530;2023-07-31T02:39:34;17.48;87.26
73133;DHT22;61320;52.008;4.530;2023-07-31T02:42:00;17.46;87.13
73133;DHT22;61320;52.008;4.530;2023-07-31T02:44:26;17.43;86.90
73133;DHT22;61320;52.008;4.530;2023-07-31T02:46:51;17.43;87.01
73133;DHT22;61320;52.008;4.530;2023-07-31T02:49:17;17.41;86.55
73133;DHT22;61320;52.008;4.530;2023-07-31T02:54:07;17.34;86.74
73133;DHT22;61320;52.008;4.530;2023-07-31T02:56:33;17.34;86.68
73133;DHT22;61320;52.008;4.530;2023-07-31T02:58:58;17.35;86.83
73133;DHT22;61320;52.008;4.530;2023-07-31T03:01:24;17.38;86.76
73133;DHT22;61320;52.008;4.530;2023-07-31T03:06:14;17.41;86.76
73133;DHT22;61320;52.008;4.530;2023-07-31T03:08:40;17.45;86.30
73133;DHT22;61320;52.008;4.530;2023-07-31T03:11:05;17.43;86.35
73133;DHT22;61320;52.008;4.530;2023-07-31T03:13:31;17.46;86.46
73133;DHT22;61320;52.008;4.530;2023-07-31T03:15:56;17.46;86.24
73133;DHT22;61320;52.008;4.530;2023-07-31T03:18:22;17.43;86.27
73133;DHT22;61320;52.008;4.530;2023-07-31T03:20:47;17.46;86.70
73133;DHT22;61320;52.008;4.530;2023-07-31T03:23:13;17.49;86.13
73133;DHT22;61320;52.008;4.530;2023-07-31T03:25:39;17.49;86.57
73133;DHT22;61320;52.008;4.530;2023-07-31T03:28:04;17.51;86.44
73133;DHT22;61320;52.008;4.530;2023-07-31T03:30:30;17.52;86.32
73133;DHT22;61320;52.008;4.530;2023-07-31T03:32:55;17.55;86.14
73133;DHT22;61320;52.008;4.530;2023-07-31T03:35:21;17.55;86.49
73133;DHT22;61320;52.008;4.530;2023-07-31T03:37:46;17.58;86.53
73133;DHT22;61320;52.008;4.530;2023-07-31T03:42:37;17.58;86.44
73133;DHT22;61320;52.008;4.530;2023-07-31T03:45:03;17.56;86.42
73133;DHT22;61320;52.008;4.530;2023-07-31T03:49:54;17.58;86.64
73133;DHT22;61320;52.008;4.530;2023-07-31T03:52:20;17.63;86.62
73133;DHT22;61320;52.008;4.530;2023-07-31T03:54:45;17.61;86.67
73133;DHT22;61320;52.008;4.530;2023-07-31T03:57:11;17.65;86.82
73133;DHT22;61320;52.008;4.530;2023-07-31T03:59:36;17.65;86.99
73133;DHT22;61320;52.008;4.530;2023-07-31T04:02:04;17.66;86.84
73133;DHT22;61320;52.008;4.530;2023-07-31T04:04:30;17.63;86.92
73133;DHT22;61320;52.008;4.530;2023-07-31T04:06:55;17.68;87.01
73133;DHT22;61320;52.008;4.530;2023-07-31T04:09:21;17.68;87.02
73133;DHT22;61320;52.008;4.530;2023-07-31T04:11:46;17.63;87.03
73133;DHT22;61320;52.008;4.530;2023-07-31T04:16:37;17.66;87.08
73133;DHT22;61320;52.008;4.530;2023-07-31T04:19:03;17.66;87.18
73133;DHT22;61320;52.008;4.530;2023-07-31T04:21:29;17.68;87.18
73133;DHT22;61320;52.008;4.530;2023-07-31T04:23:54;17.65;87.25
73133;DHT22;61320;52.008;4.530;2023-07-31T04:26:22;17.68;87.40
73133;DHT22;61320;52.008;4.530;2023-07-31T04:28:47;17.69;87.39
73133;DHT22;61320;52.008;4.530;2023-07-31T04:31:13;17.72;87.00
73133;DHT22;61320;52.008;4.530;2023-07-31T04:33:38;17.66;87.00
73133;DHT22;61320;52.008;4.530;2023-07-31T04:36:05;17.65;86.95
73133;DHT22;61320;52.008;4.530;2023-07-31T04:38:30;17.59;86.96
73133;DHT22;61320;52.008;4.530;2023-07-31T04:40:56;17.51;87.14
73133;DHT22;61320;52.008;4.530;2023-07-31T04:43:21;17.48;87.11
73133;DHT22;61320;52.008;4.530;2023-07-31T04:45:47;17.42;87.43
73133;DHT22;61320;52.008;4.530;2023-07-31T04:53:04;17.39;87.15
73133;DHT22;61320;52.008;4.530;2023-07-31T05:43:59;17.46;87.58
73133;DHT22;61320;52.008;4.530;2023-07-31T06:37:19;17.80;87.68
73133;DHT22;61320;52.008;4.530;2023-07-31T06:39:44;17.78;87.97
73133;DHT22;61320;52.008;4.530;2023-07-31T06:42:10;17.83;87.90
73133;DHT22;61320;52.008;4.530;2023-07-31T06:47:01;17.85;87.80
73133;DHT22;61320;52.008;4.530;2023-07-31T06:49:26;17.86;88.01
73133;DHT22;61320;52.008;4.530;2023-07-31T06:51:52;17.92;88.00
73133;DHT22;61320;52.008;4.530;2023-07-31T06:54:17;17.93;87.88
73133;DHT22;61320;52.008;4.530;2023-07-31T06:56:42;17.96;87.84
73133;DHT22;61320;52.008;4.530;2023-07-31T06:59:08;17.96;88.03
73133;DHT22;61320;52.008;4.530;2023-07-31T07:01:33;17.97;88.02
73133;DHT22;61320;52.008;4.530;2023-07-31T07:03:59;18.01;87.75
73133;DHT22;61320;52.008;4.530;2023-07-31T07:06:24;18.06;87.62
73133;DHT22;61320;52.008;4.530;2023-07-31T07:08:55;18.07;87.77
73133;DHT22;61320;52.008;4.530;2023-07-31T07:11:20;18.10;87.85
73133;DHT22;61320;52.008;4.530;2023-07-31T07:13:45;18.10;87.70
73133;DHT22;61320;52.008;4.530;2023-07-31T07:16:11;18.16;87.77
73133;DHT22;61320;52.008;4.530;2023-07-31T07:18:36;18.13;87.74
73133;DHT22;61320;52.008;4.530;2023-07-31T07:21:03;18.14;87.78
73133;DHT22;61320;52.008;4.530;2023-07-31T07:23:28;18.13;87.78
73133;DHT22;61320;52.008;4.530;2023-07-31T07:25:54;18.13;87.73
73133;DHT22;61320;52.008;4.530;2023-07-31T07:28:19;18.16;87.66
73133;DHT22;61320;52.008;4.530;2023-07-31T07:30:45;18.16;87.76
73133;DHT22;61320;52.008;4.530;2023-07-31T07:33:15;18.18;87.90
73133;DHT22;61320;52.008;4.530;2023-07-31T07:35:41;18.20;87.68
73133;DHT22;61320;52.008;4.530;2023-07-31T07:38:06;18.18;88.03
73133;DHT22;61320;52.008;4.530;2023-07-31T07:40:32;18.20;87.92
73133;DHT22;61320;52.008;4.530;2023-07-31T07:42:57;18.27;87.94
73133;DHT22;61320;52.008;4.530;2023-07-31T07:45:23;18.27;87.89
73133;DHT22;61320;52.008;4.530;2023-07-31T07:47:48;18.29;87.93
73133;DHT22;61320;52.008;4.530;2023-07-31T07:50:13;18.33;87.96
73133;DHT22;61320;52.008;4.530;2023-07-31T07:52:39;18.33;87.82
73133;DHT22;61320;52.008;4.530;2023-07-31T07:55:05;18.37;87.97
73133;DHT22;61320;52.008;4.530;2023-07-31T07:57:30;18.37;87.94
73133;DHT22;61320;52.008;4.530;2023-07-31T07:59:56;18.43;87.80
73133;DHT22;61320;52.008;4.530;2023-07-31T08:02:22;18.45;88.11
73133;DHT22;61320;52.008;4.530;2023-07-31T08:04:47;18.47;87.92
73133;DHT22;61320;52.008;4.530;2023-07-31T08:07:13;18.45;88.03
73133;DHT22;61320;52.008;4.530;2023-07-31T08:09:40;18.47;87.93
73133;DHT22;61320;52.008;4.530;2023-07-31T08:12:06;18.47;87.80
73133;DHT22;61320;52.008;4.530;2023-07-31T08:14:32;18.45;88.06
73133;DHT22;61320;52.008;4.530;2023-07-31T08:19:23;18.48;88.01
73133;DHT22;61320;52.008;4.530;2023-07-31T08:21:49;18.50;87.93
73133;DHT22;61320;52.008;4.530;2023-07-31T08:24:14;18.51;88.08
73133;DHT22;61320;52.008;4.530;2023-07-31T08:26:40;18.51;87.97
73133;DHT22;61320;52.008;4.530;2023-07-31T08:29:05;18.55;87.97
73133;DHT22;61320;52.008;4.530;2023-07-31T08:31:31;18.57;87.73
73133;DHT22;61320;52.008;4.530;2023-07-31T08:33:56;18.51;87.73
73133;DHT22;61320;52.008;4.530;2023-07-31T08:36:22;18.54;88.00
73133;DHT22;61320;52.008;4.530;2023-07-31T08:38:47;18.54;87.99
73133;DHT22;61320;52.008;4.530;2023-07-31T08:41:13;18.58;87.96
73133;DHT22;61320;52.008;4.530;2023-07-31T08:46:05;18.65;87.97
73133;DHT22;61320;52.008;4.530;2023-07-31T08:48:32;18.65;87.91
73133;DHT22;61320;52.008;4.530;2023-07-31T08:50:58;18.67;88.17
73133;DHT22;61320;52.008;4.530;2023-07-31T08:53:23;18.69;88.14
73133;DHT22;61320;52.008;4.530;2023-07-31T08:55:50;18.64;87.97
73133;DHT22;61320;52.008;4.530;2023-07-31T08:58:18;18.67;87.89
73133;DHT22;61320;52.008;4.530;2023-07-31T09:00:46;18.67;88.17
73133;DHT22;61320;52.008;4.530;2023-07-31T09:03:14;18.72;88.21
73133;DHT22;61320;52.008;4.530;2023-07-31T09:05:44;18.71;88.12
73133;DHT22;61320;52.008;4.530;2023-07-31T09:08:11;18.73;87.95
73133;DHT22;61320;52.008;4.530;2023-07-31T09:10:44;18.73;88.05
73133;DHT22;61320;52.008;4.530;2023-07-31T09:13:15;18.76;88.07
73133;DHT22;61320;52.008;4.530;2023-07-31T09:15:45;18.81;87.98
73133;DHT22;61320;52.008;4.530;2023-07-31T09:18:11;18.81;88.20
73133;DHT22;61320;52.008;4.530;2023-07-31T09:20:37;18.84;88.02
73133;DHT22;61320;52.008;4.530;2023-07-31T09:23:12;18.87;88.03
73133;DHT22;61320;52.008;4.530;2023-07-31T09:25:40;18.85;88.05
73133;DHT22;61320;52.008;4.530;2023-07-31T09:28:07;18.87;88.16
73133;DHT22;61320;52.008;4.530;2023-07-31T09:30:51;18.89;87.98
73133;DHT22;61320;52.008;4.530;2023-07-31T09:33:17;18.89;88.10
73133;DHT22;61320;52.008;4.530;2023-07-31T09:35:43;18.92;88.11
73133;DHT22;61320;52.008;4.530;2023-07-31T09:38:13;18.94;87.78
73133;DHT22;61320;52.008;4.530;2023-07-31T09:40:41;18.87;87.84
73133;DHT22;61320;52.008;4.530;2023-07-31T09:43:11;18.87;87.87
73133;DHT22;61320;52.008;4.530;2023-07-31T09:45:41;18.88;87.88
73133;DHT22;61320;52.008;4.530;2023-07-31T09:48:12;18.87;87.93
73133;DHT22;61320;52.008;4.530;2023-07-31T09:50:41;18.85;88.04
73133;DHT22;61320;52.008;4.530;2023-07-31T09:53:08;18.85;88.16
73133;DHT22;61320;52.008;4.530;2023-07-31T09:55:34;18.91;88.29
73133;DHT22;61320;52.008;4.530;2023-07-31T10:00:30;18.92;87.92
73133;DHT22;61320;52.008;4.530;2023-07-31T10:02:59;18.92;87.84
73133;DHT22;61320;52.008;4.530;2023-07-31T10:05:34;18.96;88.04
73133;DHT22;61320;52.008;4.530;2023-07-31T10:08:00;19.08;87.97
73133;DHT22;61320;52.008;4.530;2023-07-31T10:10:26;19.15;87.95
73133;DHT22;61320;52.008;4.530;2023-07-31T10:12:53;19.20;87.51
73133;DHT22;61320;52.008;4.530;2023-07-31T10:15:19;19.23;87.78
73133;DHT22;61320;52.008;4.530;2023-07-31T10:17:49;19.22;87.75
73133;DHT22;61320;52.008;4.530;2023-07-31T10:20:16;19.22;87.93
73133;DHT22;61320;52.008;4.530;2023-07-31T10:22:43;19.31;87.85
73133;DHT22;61320;52.008;4.530;2023-07-31T10:27:41;19.27;88.01
73133;DHT22;61320;52.008;4.530;2023-07-31T10:30:16;19.27;87.73
73133;DHT22;61320;52.008;4.530;2023-07-31T10:32:44;19.29;87.65
73133;DHT22;61320;52.008;4.530;2023-07-31T10:35:11;19.27;87.71
73133;DHT22;61320;52.008;4.530;2023-07-31T10:37:39;19.30;87.70
73133;DHT22;61320;52.008;4.530;2023-07-31T10:45:03;19.43;87.50
73133;DHT22;61320;52.008;4.530;2023-07-31T10:47:29;19.37;87.18
73133;DHT22;61320;52.008;4.530;2023-07-31T10:50:17;19.40;87.57
73133;DHT22;61320;52.008;4.530;2023-07-31T10:52:48;19.37;87.34
73133;DHT22;61320;52.008;4.530;2023-07-31T10:57:45;19.41;87.55
73133;DHT22;61320;52.008;4.530;2023-07-31T11:00:42;19.47;87.06
73133;DHT22;61320;52.008;4.530;2023-07-31T11:03:14;19.47;87.08
73133;DHT22;61320;52.008;4.530;2023-07-31T11:05:49;19.43;86.85
73133;DHT22;61320;52.008;4.530;2023-07-31T11:08:21;19.37;87.33
73133;DHT22;61320;52.008;4.530;2023-07-31T11:10:50;19.36;87.40
73133;DHT22;61320;52.008;4.530;2023-07-31T11:13:16;19.41;86.93
73133;DHT22;61320;52.008;4.530;2023-07-31T11:15:42;19.43;87.51
73133;DHT22;61320;52.008;4.530;2023-07-31T11:18:07;19.56;87.44
73133;DHT22;61320;52.008;4.530;2023-07-31T11:20:36;19.58;86.98
73133;DHT22;61320;52.008;4.530;2023-07-31T11:23:07;19.54;87.02
73133;DHT22;61320;52.008;4.530;2023-07-31T11:28:06;19.58;87.55
73133;DHT22;61320;52.008;4.530;2023-07-31T11:30:33;19.70;87.20
73133;DHT22;61320;52.008;4.530;2023-07-31T11:33:00;19.73;87.31
73133;DHT22;61320;52.008;4.530;2023-07-31T11:35:26;19.74;87.22
73133;DHT22;61320;52.008;4.530;2023-07-31T11:37:51;19.70;87.06
73133;DHT22;61320;52.008;4.530;2023-07-31T11:40:17;19.64;86.81
73133;DHT22;61320;52.008;4.530;2023-07-31T11:42:43;19.63;86.96
73133;DHT22;61320;52.008;4.530;2023-07-31T11:45:09;19.63;87.59
73133;DHT22;61320;52.008;4.530;2023-07-31T11:47:38;19.70;87.28
73133;DHT22;61320;52.008;4.530;2023-07-31T11:50:05;19.73;87.30
73133;DHT22;61320;52.008;4.530;2023-07-31T11:52:36;19.78;87.29
73133;DHT22;61320;52.008;4.530;2023-07-31T11:55:04;19.73;86.74
73133;DHT22;61320;52.008;4.530;2023-07-31T11:57:30;19.75;86.72
73133;DHT22;61320;52.008;4.530;2023-07-31T11:59:57;19.73;86.81
73133;DHT22;61320;52.008;4.530;2023-07-31T12:02:23;19.70;86.77
73133;DHT22;61320;52.008;4.530;2023-07-31T12:04:49;19.68;86.95
73133;DHT22;61320;52.008;4.530;2023-07-31T12:07:15;19.68;86.89
73133;DHT22;61320;52.008;4.530;2023-07-31T12:09:54;19.70;86.90
73133;DHT22;61320;52.008;4.530;2023-07-31T12:12:21;19.70;86.66
73133;DHT22;61320;52.008;4.530;2023-07-31T12:14:47;19.79;86.76
73133;DHT22;61320;52.008;4.530;2023-07-31T12:17:14;19.85;86.25
73133;DHT22;61320;52.008;4.530;2023-07-31T12:19:40;19.82;86.68
73133;DHT22;61320;52.008;4.530;2023-07-31T12:22:13;19.74;86.03
73133;DHT22;61320;52.008;4.530;2023-07-31T12:24:44;19.77;86.65
73133;DHT22;61320;52.008;4.530;2023-07-31T12:27:14;19.91;87.35
73133;DHT22;61320;52.008;4.530;2023-07-31T12:29:42;19.95;86.87
73133;DHT22;61320;52.008;4.530;2023-07-31T12:32:23;19.95;86.30
73133;DHT22;61320;52.008;4.530;2023-07-31T12:34:51;19.89;86.47
73133;DHT22;61320;52.008;4.530;2023-07-31T12:37:16;19.91;86.68
73133;DHT22;61320;52.008;4.530;2023-07-31T12:39:42;19.91;86.60
73133;DHT22;61320;52.008;4.530;2023-07-31T12:44:33;19.99;86.83
73133;DHT22;61320;52.008;4.530;2023-07-31T12:46:58;20.01;85.96
73133;DHT22;61320;52.008;4.530;2023-07-31T12:49:24;19.97;86.32
73133;DHT22;61320;52.008;4.530;2023-07-31T12:51:50;19.94;86.47
73133;DHT22;61320;52.008;4.530;2023-07-31T12:54:15;19.95;86.74
73133;DHT22;61320;52.008;4.530;2023-07-31T12:56:41;19.98;86.78
73133;DHT22;61320;52.008;4.530;2023-07-31T12:59:06;19.99;86.46
73133;DHT22;61320;52.008;4.530;2023-07-31T13:01:32;19.99;86.39
73133;DHT22;61320;52.008;4.530;2023-07-31T13:03:57;19.99;86.82
73133;DHT22;61320;52.008;4.530;2023-07-31T13:06:25;19.92;86.38
73133;DHT22;61320;52.008;4.530;2023-07-31T13:08:51;19.91;87.02
73133;DHT22;61320;52.008;4.530;2023-07-31T13:11:16;19.89;86.68
73133;DHT22;61320;52.008;4.530;2023-07-31T13:13:42;19.88;86.96
73133;DHT22;61320;52.008;4.530;2023-07-31T13:16:07;19.92;87.07
73133;DHT22;61320;52.008;4.530;2023-07-31T13:18:33;19.94;86.95
73133;DHT22;61320;52.008;4.530;2023-07-31T13:20:58;19.91;86.61
73133;DHT22;61320;52.008;4.530;2023-07-31T13:23:24;19.97;86.87
73133;DHT22;61320;52.008;4.530;2023-07-31T13:25:49;20.01;86.78
73133;DHT22;61320;52.008;4.530;2023-07-31T13:28:14;20.04;87.06
73133;DHT22;61320;52.008;4.530;2023-07-31T13:30:40;20.01;86.98
73133;DHT22;61320;52.008;4.530;2023-07-31T13:33:05;19.98;86.81
73133;DHT22;61320;52.008;4.530;2023-07-31T13:35:31;19.92;87.08
73133;DHT22;61320;52.008;4.530;2023-07-31T13:37:57;19.91;86.83
73133;DHT22;61320;52.008;4.530;2023-07-31T13:40:22;19.91;87.25
73133;DHT22;61320;52.008;4.530;2023-07-31T13:42:48;19.95;86.71
73133;DHT22;61320;52.008;4.530;2023-07-31T13:45:14;19.95;86.68
73133;DHT22;61320;52.008;4.530;2023-07-31T13:47:39;19.91;86.80
73133;DHT22;61320;52.008;4.530;2023-07-31T13:50:05;19.84;87.24
73133;DHT22;61320;52.008;4.530;2023-07-31T13:52:31;19.82;87.15
73133;DHT22;61320;52.008;4.530;2023-07-31T13:54:56;19.85;87.14
73133;DHT22;61320;52.008;4.530;2023-07-31T13:57:22;19.85;86.90
73133;DHT22;61320;52.008;4.530;2023-07-31T14:02:14;19.79;87.51
73133;DHT22;61320;52.008;4.530;2023-07-31T14:04:40;19.81;87.46
73133;DHT22;61320;52.008;4.530;2023-07-31T14:07:06;19.84;87.46
73133;DHT22;61320;52.008;4.530;2023-07-31T14:09:32;19.85;87.43
73133;DHT22;61320;52.008;4.530;2023-07-31T14:11:57;19.84;87.55
73133;DHT22;61320;52.008;4.530;2023-07-31T14:16:48;19.79;87.26
73133;DHT22;61320;52.008;4.530;2023-07-31T14:19:13;19.79;87.45
73133;DHT22;61320;52.008;4.530;2023-07-31T14:21:39;19.82;87.34
73133;DHT22;61320;52.008;4.530;2023-07-31T14:24:04;19.81;87.30
73133;DHT22;61320;52.008;4.530;2023-07-31T14:26:30;19.74;87.17
73133;DHT22;61320;52.008;4.530;2023-07-31T14:33:46;19.73;87.67
73133;DHT22;61320;52.008;4.530;2023-07-31T14:36:12;19.77;87.25
73133;DHT22;61320;52.008;4.530;2023-07-31T14:38:37;19.77;86.49
73133;DHT22;61320;52.008;4.530;2023-07-31T14:41:03;19.73;87.08
73133;DHT22;61320;52.008;4.530;2023-07-31T14:43:28;19.67;87.31
73133;DHT22;61320;52.008;4.530;2023-07-31T14:45:54;19.63;87.41
73133;DHT22;61320;52.008;4.530;2023-07-31T14:48:23;19.63;87.38
73133;DHT22;61320;52.008;4.530;2023-07-31T14:50:48;19.64;87.75
73133;DHT22;61320;52.008;4.530;2023-07-31T14:55:39;19.68;87.60
73133;DHT22;61320;52.008;4.530;2023-07-31T14:58:05;19.70;88.02
73133;DHT22;61320;52.008;4.530;2023-07-31T15:00:30;19.71;87.72
73133;DHT22;61320;52.008;4.530;2023-07-31T15:02:56;19.70;87.86
73133;DHT22;61320;52.008;4.530;2023-07-31T15:05:21;19.70;87.79
73133;DHT22;61320;52.008;4.530;2023-07-31T15:07:47;19.74;87.45
73133;DHT22;61320;52.008;4.530;2023-07-31T15:10:12;19.73;87.31
73133;DHT22;61320;52.008;4.530;2023-07-31T15:12:40;19.68;87.42
73133;DHT22;61320;52.008;4.530;2023-07-31T15:15:06;19.63;87.45
73133;DHT22;61320;52.008;4.530;2023-07-31T15:17:31;19.61;87.56
73133;DHT22;61320;52.008;4.530;2023-07-31T15:19:57;19.61;87.31
73133;DHT22;61320;52.008;4.530;2023-07-31T15:22:23;19.51;87.20
73133;DHT22;61320;52.008;4.530;2023-07-31T15:24:49;19.46;87.37
73133;DHT22;61320;52.008;4.530;2023-07-31T15:27:15;19.41;87.60
73133;DHT22;61320;52.008;4.530;2023-07-31T15:29:41;19.43;87.87
73133;DHT22;61320;52.008;4.530;2023-07-31T15:32:07;19.43;87.69
73133;DHT22;61320;52.008;4.530;2023-07-31T15:34:32;19.41;87.83
73133;DHT22;61320;52.008;4.530;2023-07-31T15:36:58;19.45;87.91
73133;DHT22;61320;52.008;4.530;2023-07-31T15:39:23;19.46;87.75
73133;DHT22;61320;52.008;4.530;2023-07-31T15:41:49;19.45;87.61
73133;DHT22;61320;52.008;4.530;2023-07-31T15:46:40;19.37;87.97
73133;DHT22;61320;52.008;4.530;2023-07-31T15:49:05;19.40;88.21
73133;DHT22;61320;52.008;4.530;2023-07-31T15:51:32;19.39;88.11
73133;DHT22;61320;52.008;4.530;2023-07-31T15:53:57;19.40;87.88
73133;DHT22;61320;52.008;4.530;2023-07-31T15:58:48;19.41;88.06
73133;DHT22;61320;52.008;4.530;2023-07-31T16:01:15;19.37;87.90
73133;DHT22;61320;52.008;4.530;2023-07-31T16:06:06;19.43;87.87
73133;DHT22;61320;52.008;4.530;2023-07-31T16:08:32;19.49;87.64
73133;DHT22;61320;52.008;4.530;2023-07-31T16:10:57;19.53;87.82
73133;DHT22;61320;52.008;4.530;2023-07-31T16:13:23;19.53;87.71
73133;DHT22;61320;52.008;4.530;2023-07-31T16:15:48;19.54;87.54
73133;DHT22;61320;52.008;4.530;2023-07-31T16:18:14;19.49;87.58
73133;DHT22;61320;52.008;4.530;2023-07-31T16:20:39;19.45;87.69
73133;DHT22;61320;52.008;4.530;2023-07-31T16:23:05;19.33;87.84
73133;DHT22;61320;52.008;4.530;2023-07-31T16:25:32;19.31;88.07
73133;DHT22;61320;52.008;4.530;2023-07-31T16:27:58;19.31;88.23
73133;DHT22;61320;52.008;4.530;2023-07-31T16:30:23;19.34;88.34
73133;DHT22;61320;52.008;4.530;2023-07-31T16:32:49;19.37;88.22
73133;DHT22;61320;52.008;4.530;2023-07-31T16:35:15;19.41;88.18
73133;DHT22;61320;52.008;4.530;2023-07-31T16:37:40;19.39;88.10
73133;DHT22;61320;52.008;4.530;2023-07-31T16:40:07;19.39;88.12
73133;DHT22;61320;52.008;4.530;2023-07-31T16:42:33;19.39;88.10
73133;DHT22;61320;52.008;4.530;2023-07-31T16:44:59;19.40;88.15
73133;DHT22;61320;52.008;4.530;2023-07-31T16:47:24;19.41;87.99
73133;DHT22;61320;52.008;4.530;2023-07-31T16:49:50;19.43;87.77
73133;DHT22;61320;52.008;4.530;2023-07-31T16:52:15;19.41;87.86
73133;DHT22;61320;52.008;4.530;2023-07-31T16:57:06;19.37;87.95
73133;DHT22;61320;52.008;4.530;2023-07-31T16:59:32;19.37;88.02
73133;DHT22;61320;52.008;4.530;2023-07-31T17:01:57;19.36;88.08
73133;DHT22;61320;52.008;4.530;2023-07-31T17:04:23;19.39;88.12
73133;DHT22;61320;52.008;4.530;2023-07-31T17:06:48;19.36;87.99
73133;DHT22;61320;52.008;4.530;2023-07-31T17:09:13;19.34;88.00
73133;DHT22;61320;52.008;4.530;2023-07-31T17:11:39;19.34;87.67
73133;DHT22;61320;52.008;4.530;2023-07-31T17:14:04;19.29;87.88
73133;DHT22;61320;52.008;4.530;2023-07-31T17:16:32;19.30;87.85
73133;DHT22;61320;52.008;4.530;2023-07-31T17:19:00;19.24;87.90
73133;DHT22;61320;52.008;4.530;2023-07-31T17:21:26;19.24;88.08
73133;DHT22;61320;52.008;4.530;2023-07-31T17:28:42;19.20;87.97
73133;DHT22;61320;52.008;4.530;2023-07-31T17:33:33;19.17;87.90
73133;DHT22;61320;52.008;4.530;2023-07-31T17:35:58;19.19;87.97
73133;DHT22;61320;52.008;4.530;2023-07-31T17:38:24;19.22;87.89
73133;DHT22;61320;52.008;4.530;2023-07-31T17:40:52;19.20;87.82
73133;DHT22;61320;52.008;4.530;2023-07-31T17:48:09;19.19;88.05
73133;DHT22;61320;52.008;4.530;2023-07-31T17:50:35;19.19;88.15
73133;DHT22;61320;52.008;4.530;2023-07-31T17:53:04;19.22;88.10
73133;DHT22;61320;52.008;4.530;2023-07-31T17:55:30;19.23;88.20
73133;DHT22;61320;52.008;4.530;2023-07-31T17:57:56;19.27;87.94
73133;DHT22;61320;52.008;4.530;2023-07-31T18:00:21;19.24;87.74
73133;DHT22;61320;52.008;4.530;2023-07-31T18:02:48;19.15;87.87
73133;DHT22;61320;52.008;4.530;2023-07-31T18:05:14;19.16;88.07
73133;DHT22;61320;52.008;4.530;2023-07-31T18:10:05;19.19;87.87
73133;DHT22;61320;52.008;4.530;2023-07-31T18:12:33;19.16;87.76
73133;DHT22;61320;52.008;4.530;2023-07-31T18:14:58;19.16;87.70
73133;DHT22;61320;52.008;4.530;2023-07-31T18:17:24;19.17;87.56
73133;DHT22;61320;52.008;4.530;2023-07-31T18:19:51;19.16;87.74
73133;DHT22;61320;52.008;4.530;2023-07-31T18:24:43;19.20;87.66
73133;DHT22;61320;52.008;4.530;2023-07-31T18:27:09;19.20;87.66
73133;DHT22;61320;52.008;4.530;2023-07-31T18:29:34;19.22;87.42
73133;DHT22;61320;52.008;4.530;2023-07-31T18:32:01;19.17;87.22
73133;DHT22;61320;52.008;4.530;2023-07-31T18:34:29;19.17;87.41
73133;DHT22;61320;52.008;4.530;2023-07-31T18:36:55;19.20;87.02
73133;DHT22;61320;52.008;4.530;2023-07-31T18:39:20;19.15;86.95
73133;DHT22;61320;52.008;4.530;2023-07-31T18:41:45;19.10;87.28
73133;DHT22;61320;52.008;4.530;2023-07-31T18:44:11;18.87;85.91
73133;DHT22;61320;52.008;4.530;2023-07-31T18:46:36;18.65;85.91
73133;DHT22;61320;52.008;4.530;2023-07-31T18:49:02;18.48;86.41
73133;DHT22;61320;52.008;4.530;2023-07-31T18:51:28;18.38;86.74